createdAt,value
2023-03-05T00:01:24.843Z,1.51
2023-03-05T00:03:53.208Z,1.53
2023-03-05T00:06:22.127Z,1.47
2023-03-05T00:08:49.971Z,1.56
2023-03-05T00:11:17.260Z,1.53
2023-03-05T00:13:44.184Z,1.51
2023-03-05T00:16:14.254Z,1.48
2023-03-05T00:18:41.874Z,1.40
2023-03-05T00:21:30.668Z,1.40
2023-03-05T00:24:00.983Z,1.45
2023-03-05T00:26:29.270Z,1.49
2023-03-05T00:28:57.538Z,1.44
2023-03-05T00:31:30.312Z,1.44
2023-03-05T00:34:03.412Z,1.49
2023-03-05T00:36:31.247Z,1.55
2023-03-05T00:38:58.595Z,1.57
2023-03-05T00:41:25.696Z,1.53
2023-03-05T00:43:52.602Z,1.53
2023-03-05T00:46:19.672Z,1.48
2023-03-05T00:48:46.472Z,1.49
2023-03-05T00:51:13.528Z,1.52
2023-03-05T00:53:40.291Z,1.50
2023-03-05T00:56:07.487Z,1.52
2023-03-05T00:58:34.319Z,1.44
2023-03-05T01:01:02.807Z,1.43
2023-03-05T01:03:30.831Z,1.42
2023-03-05T01:05:58.543Z,1.41
2023-03-05T01:08:26.549Z,1.47
2023-03-05T01:10:53.605Z,1.51
2023-03-05T01:13:20.765Z,1.46
2023-03-05T01:15:48.784Z,1.52
2023-03-05T01:18:15.624Z,1.67
2023-03-05T01:20:43.359Z,1.64
2023-03-05T01:23:10.502Z,1.73
2023-03-05T01:25:37.809Z,1.76
2023-03-05T01:28:05.101Z,1.73
2023-03-05T01:30:32.368Z,1.81
2023-03-05T01:32:59.507Z,1.76
2023-03-05T01:35:27.158Z,1.83
2023-03-05T01:37:54.328Z,1.88
2023-03-05T01:40:26.296Z,1.91
2023-03-05T01:43:06.659Z,1.86
2023-03-05T01:45:33.805Z,1.85
2023-03-05T01:48:00.601Z,1.86
2023-03-05T01:50:27.963Z,1.89
2023-03-05T01:53:06.504Z,1.92
2023-03-05T01:55:37.177Z,1.91
2023-03-05T01:58:08.803Z,1.93
2023-03-05T02:00:50.944Z,1.96
2023-03-05T02:03:18.437Z,1.92
2023-03-05T02:05:45.472Z,1.89
2023-03-05T02:08:18.393Z,1.91
2023-03-05T02:10:51.724Z,1.83
2023-03-05T02:13:22.687Z,1.76
2023-03-05T02:15:50.244Z,1.81
2023-03-05T02:18:18.966Z,1.82
2023-03-05T02:20:54.066Z,1.84
2023-03-05T02:23:22.640Z,1.78
2023-03-05T02:25:50.377Z,1.77
2023-03-05T02:28:46.390Z,1.77
2023-03-05T02:31:21.964Z,1.73
2023-03-05T02:33:49.662Z,1.79
2023-03-05T02:36:18.170Z,1.72
2023-03-05T02:38:45.684Z,1.80
2023-03-05T02:41:14.130Z,1.75
2023-03-05T02:43:41.354Z,1.81
2023-03-05T02:46:09.319Z,1.80
2023-03-05T02:48:36.123Z,1.77
2023-03-05T02:51:05.531Z,1.73
2023-03-05T02:53:32.324Z,1.73
2023-03-05T02:55:59.391Z,1.79
2023-03-05T02:58:26.273Z,1.71
2023-03-05T03:00:53.340Z,1.72
2023-03-05T03:03:20.246Z,1.68
2023-03-05T03:05:47.276Z,1.82
2023-03-05T03:08:15.164Z,1.73
2023-03-05T03:10:42.209Z,1.71
2023-03-05T03:13:08.927Z,1.80
2023-03-05T03:15:37.949Z,1.75
2023-03-05T03:18:04.858Z,1.80
2023-03-05T03:20:32.767Z,1.85
2023-03-05T03:22:59.549Z,1.92
2023-03-05T03:25:26.658Z,1.88
2023-03-05T03:27:53.443Z,1.88
2023-03-05T03:30:20.553Z,1.85
2023-03-05T03:32:47.395Z,1.90
2023-03-05T03:35:14.543Z,1.90
2023-03-05T03:37:41.455Z,2.00
2023-03-05T03:40:09.625Z,1.98
2023-03-05T03:42:36.371Z,1.95
2023-03-05T03:45:04.284Z,2.06
2023-03-05T03:47:31.249Z,2.04
2023-03-05T03:50:01.643Z,2.10
2023-03-05T03:52:28.430Z,2.11
2023-03-05T03:55:01.312Z,2.05
2023-03-05T03:57:29.775Z,2.05
2023-03-05T03:59:56.960Z,2.01
2023-03-05T04:02:23.876Z,2.07
2023-03-05T04:04:51.065Z,2.12
2023-03-05T04:07:18.112Z,2.15
2023-03-05T04:09:45.478Z,2.05
2023-03-05T04:12:17.592Z,2.08
2023-03-05T04:14:46.225Z,2.20
2023-03-05T04:17:13.203Z,2.14
2023-03-05T04:19:40.701Z,2.10
2023-03-05T04:22:11.996Z,2.08
2023-03-05T04:24:39.319Z,2.11
2023-03-05T04:27:06.428Z,2.09
2023-03-05T04:29:34.592Z,2.10
2023-03-05T04:32:01.505Z,2.06
2023-03-05T04:34:28.839Z,2.02
2023-03-05T04:36:55.865Z,1.93
2023-03-05T04:39:22.947Z,2.01
2023-03-05T04:41:49.779Z,1.98
2023-03-05T04:44:17.946Z,2.08
2023-03-05T04:46:44.939Z,2.05
2023-03-05T04:49:12.093Z,2.02
2023-03-05T04:51:38.888Z,2.03
2023-03-05T04:54:06.034Z,2.04
2023-03-05T04:56:32.944Z,2.06
2023-03-05T04:59:00.656Z,2.00
2023-03-05T05:01:27.467Z,2.07
2023-03-05T05:03:54.605Z,2.12
2023-03-05T05:06:21.377Z,2.13
2023-03-05T05:08:48.451Z,2.18
2023-03-05T05:11:15.360Z,2.10
2023-03-05T05:13:42.462Z,2.11
2023-03-05T05:16:09.477Z,2.23
2023-03-05T05:18:36.645Z,2.25
2023-03-05T05:21:08.198Z,2.27
2023-03-05T05:23:36.123Z,2.34
2023-03-05T05:26:04.972Z,2.40
2023-03-05T05:28:32.445Z,2.40
2023-03-05T05:30:59.507Z,2.26
2023-03-05T05:33:27.060Z,2.37
2023-03-05T05:35:53.935Z,2.49
2023-03-05T05:38:21.058Z,2.38
2023-03-05T05:40:47.815Z,2.44
2023-03-05T05:43:15.004Z,2.37
2023-03-05T05:45:41.926Z,2.41
2023-03-05T05:48:09.042Z,2.51
2023-03-05T05:50:37.910Z,2.54
2023-03-05T05:53:05.191Z,2.40
2023-03-05T05:55:31.962Z,2.42
2023-03-05T05:57:58.997Z,2.43
2023-03-05T06:00:25.753Z,2.54
2023-03-05T06:02:52.841Z,2.51
2023-03-05T06:05:19.875Z,2.42
2023-03-05T06:07:46.917Z,2.53
2023-03-05T06:10:13.864Z,2.51
2023-03-05T06:12:40.944Z,2.44
2023-03-05T06:15:08.206Z,2.59
2023-03-05T06:17:35.478Z,2.57
2023-03-05T06:20:02.505Z,2.61
2023-03-05T06:22:29.602Z,2.59
2023-03-05T06:24:56.357Z,2.67
2023-03-05T06:27:23.433Z,2.77
2023-03-05T06:29:53.300Z,2.78
2023-03-05T06:32:21.133Z,2.81
2023-03-05T06:34:48.353Z,2.89
2023-03-05T06:37:15.506Z,2.93
2023-03-05T06:39:42.306Z,2.98
2023-03-05T06:42:10.137Z,3.07
2023-03-05T06:44:41.037Z,2.97
2023-03-05T06:47:10.541Z,3.07
2023-03-05T06:49:38.944Z,3.00
2023-03-05T06:52:07.414Z,3.07
2023-03-05T06:54:34.418Z,3.12
2023-03-05T06:57:01.622Z,3.13
2023-03-05T06:59:28.545Z,3.08
2023-03-05T07:01:55.649Z,3.12
2023-03-05T07:04:24.240Z,3.09
2023-03-05T07:06:51.490Z,3.07
2023-03-05T07:09:18.265Z,2.98
2023-03-05T07:11:45.341Z,3.06
2023-03-05T07:14:12.375Z,3.24
2023-03-05T07:16:39.522Z,3.24
2023-03-05T07:19:07.529Z,3.29
2023-03-05T07:21:36.970Z,3.30
2023-03-05T07:24:06.424Z,3.37
2023-03-05T07:26:33.629Z,3.38
2023-03-05T07:29:01.661Z,3.38
2023-03-05T07:31:31.745Z,3.26
2023-03-05T07:34:00.543Z,3.26
2023-03-05T07:36:28.058Z,3.33
2023-03-05T07:38:54.879Z,3.31
2023-03-05T07:41:23.600Z,3.35
2023-03-05T07:43:53.221Z,3.39
2023-03-05T07:46:23.021Z,3.49
2023-03-05T07:48:50.034Z,3.57
2023-03-05T07:51:19.939Z,3.53
2023-03-05T07:53:49.206Z,3.48
2023-03-05T07:56:45.659Z,3.41
2023-03-05T07:59:13.561Z,3.34
2023-03-05T08:01:41.148Z,3.41
2023-03-05T08:04:08.731Z,3.48
2023-03-05T08:06:38.597Z,3.62
2023-03-05T08:09:05.551Z,3.59
2023-03-05T08:11:32.648Z,3.56
2023-03-05T08:14:00.498Z,3.47
2023-03-05T08:16:27.722Z,3.56
2023-03-05T08:18:57.053Z,3.60
2023-03-05T08:21:35.587Z,3.68
2023-03-05T08:24:05.371Z,3.93
2023-03-05T08:26:34.954Z,3.74
2023-03-05T08:29:03.227Z,3.73
2023-03-05T08:31:30.811Z,3.92
2023-03-05T08:33:59.100Z,3.77
2023-03-05T08:36:26.947Z,3.80
2023-03-05T08:38:53.834Z,3.93
2023-03-05T08:41:20.936Z,4.05
2023-03-05T08:43:51.015Z,4.20
2023-03-05T08:46:18.379Z,4.22
2023-03-05T08:48:45.221Z,4.33
2023-03-05T08:51:14.886Z,4.25
2023-03-05T08:53:44.199Z,4.40
2023-03-05T08:56:11.631Z,4.40
2023-03-05T08:58:38.745Z,4.41
2023-03-05T09:01:06.237Z,4.54
2023-03-05T09:03:32.994Z,4.54
2023-03-05T09:06:05.440Z,4.61
2023-03-05T09:08:32.360Z,4.46
2023-03-05T09:11:05.932Z,4.50
2023-03-05T09:13:33.618Z,4.63
2023-03-05T09:16:04.041Z,4.78
2023-03-05T09:18:31.610Z,4.98
2023-03-05T09:20:59.426Z,5.05
2023-03-05T09:23:26.222Z,5.24
2023-03-05T09:25:53.358Z,5.17
2023-03-05T09:28:20.113Z,5.26
2023-03-05T09:30:47.572Z,5.27
2023-03-05T09:33:15.604Z,5.20
2023-03-05T09:35:42.968Z,5.17
2023-03-05T09:38:09.905Z,5.31
2023-03-05T09:40:42.304Z,5.34
2023-03-05T09:43:17.485Z,5.58
2023-03-05T09:46:07.367Z,5.47
2023-03-05T09:48:59.872Z,5.48
2023-03-05T09:51:35.077Z,5.63
2023-03-05T09:54:10.909Z,5.50
2023-03-05T09:56:47.509Z,5.63
2023-03-05T09:59:23.376Z,5.60
2023-03-05T10:01:52.945Z,5.56
2023-03-05T10:04:28.731Z,5.47
2023-03-05T10:07:08.940Z,5.29
2023-03-05T10:10:15.729Z,5.36
2023-03-05T10:12:44.279Z,5.50
2023-03-05T10:15:39.782Z,5.44
2023-03-05T10:18:25.095Z,5.62
2023-03-05T10:20:59.290Z,5.70
2023-03-05T10:23:44.930Z,5.59
2023-03-05T10:26:17.335Z,5.50
2023-03-05T10:29:04.997Z,5.48
2023-03-05T10:31:40.608Z,5.68
2023-03-05T10:34:41.519Z,5.38
2023-03-05T10:37:44.643Z,5.30
2023-03-05T10:40:22.092Z,5.37
2023-03-05T10:43:10.358Z,5.56
2023-03-05T10:45:43.508Z,5.69
2023-03-05T10:48:12.930Z,5.73
2023-03-05T10:50:48.569Z,5.54
2023-03-05T10:53:27.914Z,5.43
2023-03-05T10:55:56.654Z,5.40
2023-03-05T10:58:25.198Z,5.37
2023-03-05T11:01:24.359Z,5.36
2023-03-05T11:03:51.183Z,5.30
2023-03-05T11:06:30.536Z,5.40
2023-03-05T11:09:19.237Z,5.46
2023-03-05T11:12:08.595Z,5.37
2023-03-05T11:14:39.148Z,5.33
2023-03-05T11:17:44.922Z,5.27
2023-03-05T11:20:20.628Z,5.28
2023-03-05T11:23:13.870Z,5.20
2023-03-05T11:26:01.954Z,5.27
2023-03-05T11:28:35.891Z,5.33
2023-03-05T11:31:18.316Z,5.64
2023-03-05T11:34:03.417Z,5.90
2023-03-05T11:36:33.424Z,6.08
2023-03-05T11:39:06.526Z,6.07
2023-03-05T11:41:33.266Z,6.14
2023-03-05T11:44:03.833Z,6.24
2023-03-05T11:46:47.952Z,5.82
2023-03-05T11:49:20.690Z,5.53
2023-03-05T11:52:08.142Z,5.32
2023-03-05T11:54:54.934Z,5.30
2023-03-05T11:57:24.202Z,5.36
2023-03-05T11:59:55.024Z,5.63
2023-03-05T12:02:27.677Z,5.75
2023-03-05T12:04:56.334Z,5.90
2023-03-05T12:07:34.929Z,5.90
2023-03-05T12:10:02.785Z,5.84
2023-03-05T12:12:48.735Z,5.83
2023-03-05T12:15:18.695Z,5.92
2023-03-05T12:18:23.166Z,5.92
2023-03-05T12:20:58.677Z,6.13
2023-03-05T12:23:28.007Z,6.29
2023-03-05T12:26:00.141Z,6.37
2023-03-05T12:28:36.128Z,6.48
2023-03-05T12:31:44.261Z,6.24
2023-03-05T12:34:45.841Z,6.27
2023-03-05T12:37:33.083Z,6.62
2023-03-05T12:40:08.567Z,7.70
2023-03-05T12:42:58.869Z,9.06
2023-03-05T12:45:34.090Z,8.36
2023-03-05T12:48:01.072Z,7.83
2023-03-05T12:50:27.774Z,7.79
2023-03-05T12:52:58.285Z,7.89
2023-03-05T12:55:34.161Z,8.14
2023-03-05T12:58:07.275Z,7.42
2023-03-05T13:00:43.246Z,7.48
2023-03-05T13:03:18.129Z,7.36
2023-03-05T13:05:51.468Z,7.30
2023-03-05T13:08:21.165Z,7.74
2023-03-05T13:10:58.968Z,7.50
2023-03-05T13:13:29.376Z,7.26
2023-03-05T13:15:57.334Z,6.97
2023-03-05T13:18:30.157Z,6.93
2023-03-05T13:21:06.184Z,6.41
2023-03-05T13:23:35.066Z,6.50
2023-03-05T13:26:15.214Z,6.50
2023-03-05T13:28:44.963Z,6.40
2023-03-05T13:31:18.560Z,6.30
2023-03-05T13:33:55.863Z,6.20
2023-03-05T13:36:25.064Z,6.00
2023-03-05T13:38:53.355Z,5.92
2023-03-05T13:41:24.848Z,5.93
2023-03-05T13:44:00.645Z,5.98
2023-03-05T13:46:29.418Z,5.87
2023-03-05T13:48:57.637Z,5.89
2023-03-05T13:51:40.324Z,5.81
2023-03-05T13:54:10.271Z,5.83
2023-03-05T13:56:37.021Z,5.67
2023-03-05T13:59:05.532Z,5.76
2023-03-05T14:01:36.878Z,5.75
2023-03-05T14:04:12.782Z,5.69
2023-03-05T14:06:46.759Z,5.52
2023-03-05T14:09:26.067Z,5.69
2023-03-05T14:11:54.000Z,5.48
2023-03-05T14:14:23.299Z,5.44
2023-03-05T14:16:50.354Z,5.38
2023-03-05T14:19:34.802Z,5.31
2023-03-05T14:22:01.962Z,5.28
2023-03-05T14:24:31.303Z,5.15
2023-03-05T14:27:13.333Z,5.33
2023-03-05T14:29:46.607Z,5.25
2023-03-05T14:32:28.246Z,5.18
2023-03-05T14:34:58.566Z,5.21
2023-03-05T14:37:36.116Z,5.12
2023-03-05T14:40:09.949Z,5.13
2023-03-05T14:43:00.701Z,5.17
2023-03-05T14:45:37.393Z,5.12
2023-03-05T14:48:06.583Z,5.32
2023-03-05T14:50:37.114Z,5.46
2023-03-05T14:53:09.363Z,5.67
2023-03-05T14:55:38.375Z,5.61
2023-03-05T14:58:15.410Z,5.56
2023-03-05T15:00:43.676Z,5.53
2023-03-05T15:03:12.136Z,5.43
2023-03-05T15:05:39.466Z,5.37
2023-03-05T15:08:06.413Z,5.46
2023-03-05T15:10:33.516Z,5.60
2023-03-05T15:13:00.342Z,5.55
2023-03-05T15:15:27.493Z,5.63
2023-03-05T15:17:57.532Z,5.65
2023-03-05T15:20:27.328Z,5.51
2023-03-05T15:22:54.657Z,5.37
2023-03-05T15:25:25.624Z,5.31
2023-03-05T15:27:53.040Z,5.31
2023-03-05T15:30:33.346Z,5.09
2023-03-05T15:33:06.682Z,5.20
2023-03-05T15:35:33.786Z,5.21
2023-03-05T15:38:00.765Z,5.08
2023-03-05T15:40:28.869Z,5.07
2023-03-05T15:42:57.521Z,4.97
2023-03-05T15:45:25.207Z,4.77
2023-03-05T15:47:53.536Z,4.74
2023-03-05T15:50:22.211Z,4.72
2023-03-05T15:52:49.619Z,4.72
2023-03-05T15:55:18.337Z,4.78
2023-03-05T15:57:47.877Z,4.57
2023-03-05T16:00:18.240Z,4.59
2023-03-05T16:02:45.019Z,4.52
2023-03-05T16:05:12.168Z,4.43
2023-03-05T16:07:42.203Z,4.45
2023-03-05T16:10:17.557Z,4.46
2023-03-05T16:12:46.319Z,4.46
2023-03-05T16:15:19.721Z,4.32
2023-03-05T16:17:50.827Z,4.28
2023-03-05T16:20:18.237Z,4.11
2023-03-05T16:22:45.054Z,4.06
2023-03-05T16:25:12.620Z,4.11
2023-03-05T16:27:39.415Z,4.15
2023-03-05T16:30:07.153Z,3.95
2023-03-05T16:32:34.234Z,3.91
2023-03-05T16:35:01.334Z,3.91
2023-03-05T16:37:28.105Z,3.72
2023-03-05T16:39:58.957Z,3.71
2023-03-05T16:42:25.944Z,3.76
2023-03-05T16:44:53.189Z,3.73
2023-03-05T16:47:20.056Z,3.83
2023-03-05T16:49:47.061Z,3.78
2023-03-05T16:52:19.061Z,3.68
2023-03-05T16:54:47.055Z,3.70
2023-03-05T16:57:14.359Z,3.73
2023-03-05T16:59:42.117Z,3.62
2023-03-05T17:02:09.471Z,3.67
2023-03-05T17:04:37.131Z,3.54
2023-03-05T17:07:05.492Z,3.49
2023-03-05T17:09:32.772Z,3.50
2023-03-05T17:11:59.688Z,3.41
2023-03-05T17:14:26.999Z,3.44
2023-03-05T17:16:53.982Z,3.47
2023-03-05T17:19:21.116Z,3.38
2023-03-05T17:21:51.101Z,3.34
2023-03-05T17:24:21.494Z,3.36
2023-03-05T17:26:50.043Z,3.49
2023-03-05T17:29:18.975Z,3.38
2023-03-05T17:31:46.769Z,3.40
2023-03-05T17:34:14.659Z,3.30
2023-03-05T17:36:41.614Z,3.24
2023-03-05T17:39:08.904Z,3.28
2023-03-05T17:41:35.850Z,3.43
2023-03-05T17:44:03.424Z,3.35
2023-03-05T17:46:30.234Z,3.33
2023-03-05T17:48:57.281Z,3.23
2023-03-05T17:51:24.084Z,3.21
2023-03-05T17:53:51.174Z,3.22
2023-03-05T17:56:21.956Z,3.26
2023-03-05T17:58:49.933Z,3.16
2023-03-05T18:01:24.861Z,3.31
2023-03-05T18:03:52.063Z,3.27
2023-03-05T18:06:19.048Z,3.27
2023-03-05T18:08:46.138Z,3.22
2023-03-05T18:11:13.165Z,3.23
2023-03-05T18:13:40.629Z,3.32
2023-03-05T18:16:07.445Z,3.36
2023-03-05T18:18:34.896Z,3.32
2023-03-05T18:21:01.672Z,3.23
2023-03-05T18:23:28.787Z,3.19
2023-03-05T18:25:55.540Z,3.18
2023-03-05T18:28:22.742Z,3.20
2023-03-05T18:30:49.886Z,3.24
2023-03-05T18:33:22.808Z,3.22
2023-03-05T18:35:52.424Z,3.20
2023-03-05T18:38:22.080Z,3.23
2023-03-05T18:40:51.386Z,3.26
2023-03-05T18:43:20.653Z,3.40
2023-03-05T18:45:52.972Z,3.37
2023-03-05T18:48:21.078Z,3.32
2023-03-05T18:50:54.282Z,3.30
2023-03-05T18:53:22.134Z,3.23
2023-03-05T18:55:51.357Z,3.29
2023-03-05T18:58:19.120Z,3.29
2023-03-05T19:00:47.158Z,3.24
2023-03-05T19:03:16.107Z,3.26
2023-03-05T19:05:43.542Z,3.21
2023-03-05T19:08:10.758Z,3.25
2023-03-05T19:10:37.771Z,3.15
2023-03-05T19:13:40.023Z,3.10
2023-03-05T19:16:30.203Z,3.06
2023-03-05T19:19:25.408Z,3.07
2023-03-05T19:21:54.912Z,3.13
2023-03-05T19:24:23.901Z,3.11
2023-03-05T19:26:55.251Z,3.14
2023-03-05T19:29:24.014Z,3.10
2023-03-05T19:31:52.034Z,3.03
2023-03-05T19:34:20.693Z,3.07
2023-03-05T19:36:48.012Z,3.02
2023-03-05T19:39:15.582Z,3.06
2023-03-05T19:41:42.674Z,3.01
2023-03-05T19:44:09.772Z,3.02
2023-03-05T19:46:36.750Z,3.02
2023-03-05T19:49:04.525Z,2.99
2023-03-05T19:51:31.280Z,3.06
2023-03-05T19:53:58.393Z,3.08
2023-03-05T19:56:25.745Z,3.06
2023-03-05T19:58:52.823Z,2.94
2023-03-05T20:01:27.818Z,2.99
2023-03-05T20:03:58.070Z,3.11
2023-03-05T20:06:26.394Z,3.14
2023-03-05T20:08:53.911Z,3.20
2023-03-05T20:11:22.240Z,3.02
2023-03-05T20:13:49.908Z,3.09
2023-03-05T20:16:25.562Z,3.06
2023-03-05T20:18:54.957Z,2.99
2023-03-05T20:21:34.614Z,2.99
2023-03-05T20:24:04.495Z,2.92
2023-03-05T20:26:34.262Z,2.95
2023-03-05T20:29:02.546Z,2.99
2023-03-05T20:31:29.382Z,3.01
2023-03-05T20:33:56.620Z,3.04
2023-03-05T20:36:24.168Z,3.03
2023-03-05T20:38:51.275Z,3.10
2023-03-05T20:41:20.852Z,3.05
2023-03-05T20:43:50.050Z,3.00
2023-03-05T20:46:20.244Z,3.11
2023-03-05T20:48:49.793Z,2.95
2023-03-05T20:51:22.636Z,2.95
2023-03-05T20:53:51.476Z,2.93
2023-03-05T20:56:18.255Z,2.95
2023-03-05T20:58:45.520Z,2.96
2023-03-05T21:01:12.461Z,2.98
2023-03-05T21:03:40.358Z,2.96
2023-03-05T21:06:07.885Z,2.95
2023-03-05T21:08:34.964Z,2.98
2023-03-05T21:11:08.061Z,3.05
2023-03-05T21:13:35.355Z,3.11
2023-03-05T21:16:09.467Z,3.07
2023-03-05T21:18:36.868Z,3.03
2023-03-05T21:21:03.750Z,2.95
2023-03-05T21:23:31.032Z,2.97
2023-03-05T21:25:57.883Z,2.96
2023-03-05T21:28:24.945Z,3.05
2023-03-05T21:30:54.025Z,3.11
2023-03-05T21:33:23.855Z,3.02
2023-03-05T21:35:56.485Z,3.01
2023-03-05T21:38:25.591Z,3.00
2023-03-05T21:40:53.925Z,3.02
2023-03-05T21:43:23.600Z,2.98
2023-03-05T21:45:53.590Z,2.96
2023-03-05T21:48:21.956Z,2.93
2023-03-05T21:50:49.381Z,2.91
2023-03-05T21:53:17.870Z,2.89
2023-03-05T21:56:31.088Z,2.95
2023-03-05T21:58:58.234Z,2.93
2023-03-05T22:01:25.026Z,2.96
2023-03-05T22:03:52.261Z,2.99
2023-03-05T22:06:20.121Z,2.93
2023-03-05T22:08:47.666Z,3.02
2023-03-05T22:11:17.286Z,2.94
2023-03-05T22:13:44.522Z,3.01
2023-03-05T22:16:11.681Z,3.01
2023-03-05T22:18:38.896Z,2.99
2023-03-05T22:21:05.914Z,2.95
2023-03-05T22:23:36.897Z,2.89
2023-03-05T22:26:06.219Z,2.95
2023-03-05T22:28:34.504Z,2.94
2023-03-05T22:31:01.671Z,2.99
2023-03-05T22:33:29.112Z,3.10
2023-03-05T22:35:56.363Z,3.23
2023-03-05T22:38:25.367Z,3.17
2023-03-05T22:40:52.482Z,3.17
2023-03-05T22:43:20.582Z,3.17
2023-03-05T22:45:47.615Z,3.20
2023-03-05T22:48:15.102Z,3.21
2023-03-05T22:50:43.962Z,3.19
2023-03-05T22:53:12.116Z,3.12
2023-03-05T22:55:42.595Z,3.16
2023-03-05T22:58:10.003Z,3.18
2023-03-05T23:00:36.893Z,3.18
2023-03-05T23:03:05.090Z,3.29
2023-03-05T23:05:31.917Z,3.15
2023-03-05T23:07:58.960Z,3.12
2023-03-05T23:10:28.674Z,3.11
2023-03-05T23:12:57.980Z,3.09
2023-03-05T23:15:30.663Z,3.13
2023-03-05T23:17:58.520Z,3.27
2023-03-05T23:20:29.593Z,3.16
2023-03-05T23:22:57.103Z,3.03
2023-03-05T23:25:26.672Z,3.08
2023-03-05T23:27:53.941Z,3.16
2023-03-05T23:30:25.776Z,3.14
2023-03-05T23:32:57.327Z,3.07
2023-03-05T23:35:32.959Z,3.18
2023-03-05T23:38:02.073Z,3.18
2023-03-05T23:40:32.221Z,3.25
2023-03-05T23:43:00.017Z,3.20
2023-03-05T23:45:28.034Z,3.18
2023-03-05T23:47:55.441Z,3.18
2023-03-05T23:50:26.133Z,3.16
2023-03-05T23:52:56.304Z,3.20
2023-03-05T23:55:25.857Z,3.27
2023-03-05T23:57:53.688Z,3.23
